Time;durP1;ratioP1;P1;durP2;ratioP2;P2;SDS_P1;SDS_P2;PMS_P1;PMS_P2;Temp;Humidity;BMP_temperature;BMP_pressure;BME280_temperature;BME280_humidity;BME280_pressure;Samples;Min_cycle;Max_cycle;Signal;HPM_P1;HPM_P2
2024/03/15 00:01:03;;;;;;;;;;;11.00;99.90;;;10.24;100.00;97373.06;4966127;28;1827;-69
2024/03/15 00:03:30;;;;;;;;;;;11.00;99.90;;;10.32;100.00;97376.19;4957905;28;1388;-69
2024/03/15 00:05:57;;;;;;;;;;;11.00;99.90;;;10.36;100.00;97372.56;4958042;28;1456;-69
2024/03/15 00:08:24;;;;;;;;;;;11.10;99.90;;;10.35;100.00;97372.63;4967024;28;1665;-69
2024/03/15 00:10:51;;;;;;;;;;;11.10;99.90;;;10.32;100.00;97376.19;4948348;28;1439;-70
2024/03/15 00:13:18;;;;;;;;;;;11.10;99.90;;;10.50;100.00;97379.72;4952363;28;1412;-70
2024/03/15 00:15:45;;;;;;;;;;;11.10;99.90;;;10.33;100.00;97377.91;4949898;28;1899;-70
2024/03/15 00:18:12;;;;;;;;;;;11.10;99.90;;;10.34;100.00;97376.13;4939647;28;1415;-70
2024/03/15 00:20:39;;;;;;;;;;;11.10;99.90;;;10.36;100.00;97376.91;4944167;28;1953;-69
2024/03/15 00:23:07;;;;;;;;;;;11.10;99.90;;;10.34;100.00;97381.31;4948138;28;1376;-69
2024/03/15 00:25:34;;;;;;;;;;;11.20;99.90;;;10.37;100.00;97384.59;4950116;28;1654;-70
2024/03/15 00:28:04;;;;;;;;;;;11.10;99.90;;;10.48;100.00;97380.69;4948482;28;1493;-70
2024/03/15 00:30:31;;;;;;;;;;;11.10;99.90;;;10.39;100.00;97376.75;4949449;28;1456;-70
2024/03/15 00:32:58;;;;;;;;;;;11.10;99.90;;;10.40;100.00;97373.25;4960630;28;1647;-69
2024/03/15 00:35:26;;;;;;;;;;;11.10;99.90;;;10.44;100.00;97372.19;4958147;28;1902;-70
2024/03/15 00:37:53;;;;;;;;;;;11.10;99.90;;;10.42;100.00;97366.22;4936990;28;1873;-69
2024/03/15 00:40:21;;;;;;;;;;;11.10;99.90;;;10.43;100.00;97370.53;4945758;28;1348;-70
2024/03/15 00:42:47;;;;;;;;;;;11.20;99.90;;;10.40;100.00;97368.06;4950666;28;1440;-70
2024/03/15 00:45:14;;;;;;;;;;;11.20;99.90;;;10.48;100.00;97376.34;4951023;28;1476;-70
2024/03/15 00:47:41;;;;;;;;;;;11.10;99.90;;;10.38;100.00;97375.94;4948337;28;1271;-69
2024/03/15 00:50:09;;;;;;;;;;;11.20;99.90;;;10.41;100.00;97365.41;4979738;28;1432;-70
2024/03/15 00:52:37;;;;;;;;;;;11.10;99.90;;;10.46;100.00;97380.75;4943085;28;1658;-70
2024/03/15 00:55:05;;;;;;;;;;;11.10;99.90;;;10.50;100.00;97381.47;4953083;28;2004;-70
2024/03/15 00:57:32;;;;;;;;;;;11.20;99.90;;;10.48;100.00;97383.28;4957773;28;1426;-70
2024/03/15 00:59:59;;;;;;;;;;;11.10;99.90;;;10.55;100.00;97369.97;4947908;28;1274;-70
2024/03/15 01:02:27;;;;;;;;;;;11.10;99.90;;;10.46;100.00;97365.19;4968552;28;1473;-70
2024/03/15 01:04:57;;;;;;;;;;;11.10;99.90;;;10.54;100.00;97360.50;4949734;28;1423;-69
2024/03/15 01:07:23;;;;;;;;;;;11.20;99.90;;;10.63;100.00;97360.06;4953086;28;1446;-69
2024/03/15 01:09:50;;;;;;;;;;;11.20;99.90;;;10.65;100.00;97360.84;4960333;28;1413;-70
2024/03/15 01:12:17;;;;;;;;;;;11.30;99.90;;;10.58;100.00;97363.78;4946906;28;1445;-70
2024/03/15 01:14:45;;;;;;;;;;;11.20;99.90;;;10.52;100.00;97361.50;4953809;28;1376;-70
2024/03/15 01:17:15;;;;;;;;;;;11.30;99.90;;;10.51;100.00;97352.00;4949667;28;1938;-69
2024/03/15 01:19:45;;;;;;;;;;;11.30;99.90;;;10.56;100.00;97360.41;4956515;28;1414;-69
2024/03/15 01:22:12;;;;;;;;;;;11.20;99.90;;;10.52;100.00;97357.13;4948522;28;1379;-69
2024/03/15 01:24:39;;;;;;;;;;;11.20;99.90;;;10.42;100.00;97359.31;4960948;28;1387;-69
2024/03/15 01:27:06;;;;;;;;;;;11.20;99.90;;;10.44;100.00;97362.66;4944411;28;1392;-69
2024/03/15 01:29:32;;;;;;;;;;;11.20;99.90;;;10.46;100.00;97363.44;4968839;28;1487;-69
2024/03/15 01:31:59;;;;;;;;;;;11.20;99.90;;;10.43;100.00;97362.75;4958383;28;1422;-70
2024/03/15 01:34:27;;;;;;;;;;;11.10;99.90;;;10.56;100.00;97352.63;4976109;28;1494;-70
2024/03/15 01:36:54;;;;;;;;;;;11.10;99.90;;;10.41;100.00;97349.84;4950319;28;1931;-69
2024/03/15 01:39:20;;;;;;;;;;;11.10;99.90;;;10.43;100.00;97355.78;4950093;28;1487;-69
2024/03/15 01:41:47;;;;;;;;;;;11.10;99.90;;;10.40;100.00;97357.69;4950282;28;1428;-70
2024/03/15 01:44:14;;;;;;;;;;;11.10;99.90;;;10.33;100.00;97341.56;4951147;28;1385;-69
2024/03/15 01:46:41;;;;;;;;;;;11.10;99.90;;;10.34;100.00;97348.44;4950810;28;1392;-69
2024/03/15 01:49:08;;;;;;;;;;;11.10;99.90;;;10.35;100.00;97357.88;4975934;28;1363;-70
2024/03/15 01:51:36;;;;;;;;;;;11.00;99.90;;;10.31;100.00;97352.91;4955531;28;1415;-69
2024/03/15 01:54:03;;;;;;;;;;;11.00;99.90;;;10.39;100.00;97354.25;4943936;28;1425;-69
2024/03/15 01:56:31;;;;;;;;;;;11.00;99.90;;;10.21;100.00;97344.66;4953120;28;1907;-70
2024/03/15 01:58:57;;;;;;;;;;;11.00;99.90;;;10.28;100.00;97348.66;4957020;28;1368;-70
2024/03/15 02:01:24;;;;;;;;;;;11.00;99.90;;;10.22;100.00;97351.56;4947165;28;1687;-70
2024/03/15 02:03:56;;;;;;;;;;;10.90;99.90;;;10.16;100.00;97352.66;4983161;28;1400;-70
2024/03/15 02:06:22;;;;;;;;;;;10.90;99.90;;;10.20;100.00;97349.03;4952347;28;1499;-70
2024/03/15 02:08:54;;;;;;;;;;;10.90;99.90;;;10.15;100.00;97352.72;4950077;28;1385;-70
2024/03/15 02:11:21;;;;;;;;;;;10.90;99.90;;;10.07;100.00;97354.81;4947357;28;1379;-70
2024/03/15 02:13:48;;;;;;;;;;;10.90;99.90;;;10.15;100.00;97350.13;4952536;28;1380;-70
2024/03/15 02:16:15;;;;;;;;;;;10.80;99.90;;;10.15;100.00;97357.91;4969213;28;1906;-70
2024/03/15 02:18:43;;;;;;;;;;;10.80;99.90;;;10.22;100.00;97359.34;4947465;28;1368;-70
2024/03/15 02:21:10;;;;;;;;;;;10.80;99.90;;;10.19;100.00;97352.50;4948079;28;1370;-70
2024/03/15 02:23:36;;;;;;;;;;;10.80;99.90;;;10.22;100.00;97354.16;4964680;28;1529;-70
2024/03/15 02:26:03;;;;;;;;;;;10.80;99.90;;;10.09;100.00;97346.06;4951439;28;1306;-70
2024/03/15 02:28:30;;;;;;;;;;;10.80;99.90;;;10.13;100.00;97352.81;4956668;28;1269;-70
2024/03/15 02:30:57;;;;;;;;;;;10.80;99.90;;;9.96;100.00;97353.53;4942738;28;1500;-70
2024/03/15 02:33:24;;;;;;;;;;;10.70;99.90;;;10.00;100.00;97342.13;4946613;28;1420;-69
2024/03/15 02:35:51;;;;;;;;;;;10.70;99.90;;;9.95;100.00;97338.06;4955972;28;1987;-70
2024/03/15 02:38:17;;;;;;;;;;;10.70;99.90;;;9.90;100.00;97345.16;4930006;28;1256;-69
2024/03/15 02:40:44;;;;;;;;;;;10.70;99.90;;;10.05;100.00;97347.09;4956654;28;1375;-70
2024/03/15 02:43:11;;;;;;;;;;;10.70;99.90;;;9.92;100.00;97345.94;4951661;28;1279;-69
2024/03/15 02:45:37;;;;;;;;;;;10.70;99.90;;;10.03;100.00;97348.91;4949460;28;2057;-70
2024/03/15 02:48:05;;;;;;;;;;;10.70;99.90;;;9.99;100.00;97345.63;4946842;28;1290;-70
2024/03/15 02:50:32;;;;;;;;;;;10.70;99.90;;;9.88;100.00;97337.47;4950075;28;1300;-70
2024/03/15 02:53:00;;;;;;;;;;;10.70;99.90;;;10.07;100.00;97358.25;4957649;28;1387;-70
2024/03/15 02:55:27;;;;;;;;;;;10.70;99.90;;;9.92;100.00;97357.19;4961330;28;1500;-70
2024/03/15 02:57:53;;;;;;;;;;;10.60;99.90;;;9.97;100.00;97355.22;4947418;28;1319;-69
2024/03/15 03:00:20;;;;;;;;;;;10.60;99.90;;;9.85;100.00;97350.56;4953640;28;1501;-69
2024/03/15 03:02:47;;;;;;;;;;;10.60;99.90;;;9.77;100.00;97361.28;4946911;28;1163;-69
2024/03/15 03:05:15;;;;;;;;;;;10.50;99.90;;;9.86;100.00;97367.81;4946058;28;1378;-70
2024/03/15 03:07:44;;;;;;;;;;;10.50;99.90;;;9.83;100.00;97366.19;4958418;28;1219;-70
2024/03/15 03:10:11;;;;;;;;;;;10.50;99.90;;;9.80;100.00;97362.88;4952350;28;1318;-70
2024/03/15 03:12:38;;;;;;;;;;;10.50;99.90;;;9.76;100.00;97357.00;4954438;28;1349;-70
2024/03/15 03:15:06;;;;;;;;;;;10.50;99.90;;;9.88;100.00;97375.53;4951108;28;1320;-70
2024/03/15 03:17:33;;;;;;;;;;;10.50;99.90;;;9.81;100.00;97374.94;4941765;28;2378;-69
2024/03/15 03:20:00;;;;;;;;;;;10.50;99.90;;;9.72;100.00;97365.81;4954938;28;1678;-70
2024/03/15 03:22:26;;;;;;;;;;;10.50;99.90;;;9.75;100.00;97362.25;4975150;28;1394;-69
2024/03/15 03:24:53;;;;;;;;;;;10.50;99.90;;;9.70;100.00;97367.63;4943885;28;1246;-70
2024/03/15 03:27:20;;;;;;;;;;;10.40;99.90;;;9.70;100.00;97365.03;4946718;28;1172;-70
2024/03/15 03:29:47;;;;;;;;;;;10.40;99.90;;;9.66;100.00;97371.25;4930598;28;1333;-70
2024/03/15 03:32:14;;;;;;;;;;;10.40;99.90;;;9.62;100.00;97372.28;4947116;28;1364;-69
2024/03/15 03:34:41;;;;;;;;;;;10.30;99.90;;;9.59;100.00;97369.81;4973215;28;1283;-70
2024/03/15 03:37:07;;;;;;;;;;;10.40;99.90;;;9.52;100.00;97376.16;4960819;28;1903;-69
2024/03/15 03:39:34;;;;;;;;;;;10.40;99.90;;;9.52;100.00;97366.66;4946622;28;1215;-69
2024/03/15 03:42:04;;;;;;;;;;;10.30;99.90;;;9.58;100.00;97362.97;4944350;28;1941;-69
2024/03/15 03:44:32;;;;;;;;;;;10.30;99.90;;;9.50;100.00;97363.28;4953063;28;1286;-69
2024/03/15 03:47:03;;;;;;;;;;;10.30;99.90;;;9.44;100.00;97355.75;4943614;28;1416;-70
2024/03/15 03:49:29;;;;;;;;;;;10.30;99.90;;;9.47;100.00;97358.22;4940407;28;1340;-69
2024/03/15 03:51:57;;;;;;;;;;;10.30;99.90;;;9.45;100.00;97365.22;4953672;28;1371;-69
2024/03/15 03:54:24;;;;;;;;;;;10.30;99.90;;;9.43;100.00;97369.63;4944459;28;1290;-70
2024/03/15 03:56:51;;;;;;;;;;;10.20;99.90;;;9.33;100.00;97376.09;4967270;28;1907;-69
2024/03/15 03:59:18;;;;;;;;;;;10.20;99.90;;;9.39;100.00;97378.41;4975948;28;1413;-69
2024/03/15 04:01:44;;;;;;;;;;;10.20;99.90;;;9.34;100.00;97386.38;4953820;28;1351;-70
2024/03/15 04:04:11;;;;;;;;;;;10.20;99.90;;;9.43;100.00;97388.59;4947273;28;1302;-69
2024/03/15 04:06:38;;;;;;;;;;;10.10;99.90;;;9.37;100.00;97391.44;4949811;28;1373;-70
2024/03/15 04:09:05;;;;;;;;;;;10.10;99.90;;;9.26;100.00;97391.03;4945250;28;1275;-69
2024/03/15 04:11:32;;;;;;;;;;;10.10;99.90;;;9.23;100.00;97401.50;4948458;28;1316;-70
2024/03/15 04:13:59;;;;;;;;;;;10.00;99.90;;;9.25;100.00;97397.09;4946302;28;1313;-69
2024/03/15 04:16:25;;;;;;;;;;;10.00;99.90;;;9.24;100.00;97399.75;4955096;28;1978;-69
2024/03/15 04:18:53;;;;;;;;;;;10.00;99.90;;;9.15;100.00;97391.47;4953821;28;1306;-69
2024/03/15 04:21:21;;;;;;;;;;;10.00;99.90;;;9.07;100.00;97395.25;4947987;28;1387;-70
2024/03/15 04:23:48;;;;;;;;;;;10.00;99.90;;;9.03;100.00;97391.94;4949816;28;1648;-70
2024/03/15 04:26:15;;;;;;;;;;;9.90;99.90;;;9.08;100.00;97402.13;4946973;28;1475;-69
2024/03/15 04:28:42;;;;;;;;;;;9.90;99.90;;;9.03;100.00;97402.28;4951163;28;1476;-69
2024/03/15 04:31:09;;;;;;;;;;;9.90;99.90;;;8.97;100.00;97402.53;4957887;28;1296;-70
2024/03/15 04:33:35;;;;;;;;;;;9.80;99.90;;;8.95;100.00;97406.94;4954391;28;1612;-69
2024/03/15 04:36:04;;;;;;;;;;;9.80;99.90;;;8.98;100.00;97399.03;4949593;28;1899;-70
2024/03/15 04:38:32;;;;;;;;;;;9.80;99.90;;;8.91;100.00;97398.44;4951604;28;1280;-70
2024/03/15 04:41:09;;;;;;;;;;;9.80;99.90;;;8.94;100.00;97400.06;4946562;28;1297;-70
2024/03/15 04:43:36;;;;;;;;;;;9.80;99.90;;;8.96;100.00;97396.53;4950816;28;1291;-69
2024/03/15 04:46:04;;;;;;;;;;;9.80;99.90;;;8.96;100.00;97403.44;4952796;28;1334;-70
2024/03/15 04:48:31;;;;;;;;;;;9.80;99.90;;;8.97;100.00;97398.22;4937997;28;1508;-70
2024/03/15 04:50:58;;;;;;;;;;;9.80;99.90;;;8.91;100.00;97395.84;4943344;28;1627;-70
2024/03/15 04:53:24;;;;;;;;;;;9.80;99.90;;;8.97;100.00;97402.53;4954367;28;1358;-69
2024/03/15 04:55:52;;;;;;;;;;;9.80;99.90;;;9.04;100.00;97397.97;4940964;28;1298;-69
2024/03/15 04:58:21;;;;;;;;;;;9.90;99.90;;;8.94;100.00;97400.06;4945607;28;2016;-70
2024/03/15 05:00:48;;;;;;;;;;;9.80;99.90;;;9.05;100.00;97404.81;4947794;28;1385;-70
2024/03/15 05:03:15;;;;;;;;;;;9.80;99.90;;;8.90;100.00;97401.09;4977031;28;1784;-69
2024/03/15 05:05:42;;;;;;;;;;;9.80;99.90;;;8.79;100.00;97397.16;4948701;28;1350;-69
2024/03/15 05:08:09;;;;;;;;;;;9.70;99.90;;;8.78;100.00;97399.81;4951681;28;1353;-70
2024/03/15 05:10:35;;;;;;;;;;;9.70;99.90;;;8.80;100.00;97398.00;4947299;28;1300;-70
2024/03/15 05:13:06;;;;;;;;;;;9.70;99.90;;;8.70;100.00;97397.50;4951567;28;1571;-70
2024/03/15 05:15:33;;;;;;;;;;;9.70;99.90;;;8.66;100.00;97398.53;4947171;28;1275;-70
2024/03/15 05:18:00;;;;;;;;;;;9.60;99.90;;;8.66;100.00;97401.13;4945081;28;1919;-70
2024/03/15 05:20:28;;;;;;;;;;;9.60;99.90;;;8.77;100.00;97393.78;4942674;28;1261;-69
2024/03/15 05:22:54;;;;;;;;;;;9.60;99.90;;;8.70;100.00;97396.69;4958367;28;1278;-70
2024/03/15 05:25:21;;;;;;;;;;;9.50;99.90;;;8.68;100.00;97394.13;4949200;28;1195;-70
2024/03/15 05:27:49;;;;;;;;;;;9.50;99.90;;;8.78;100.00;97395.50;4951471;28;1491;-70
2024/03/15 05:30:18;;;;;;;;;;;9.60;99.90;;;8.70;100.00;97410.44;4954558;28;1365;-69
2024/03/15 05:32:46;;;;;;;;;;;9.60;99.90;;;8.73;100.00;97407.75;4956219;28;1536;-70
2024/03/15 05:35:18;;;;;;;;;;;9.60;99.90;;;8.73;100.00;97414.66;4952628;28;1449;-70
2024/03/15 05:37:45;;;;;;;;;;;9.60;99.90;;;8.72;100.00;97413.84;4950119;28;1973;-70
2024/03/15 05:40:12;;;;;;;;;;;9.60;99.90;;;8.71;100.00;97409.56;4958240;28;1294;-70
2024/03/15 05:42:39;;;;;;;;;;;9.60;99.90;;;8.75;100.00;97418.88;4945576;28;1358;-70
2024/03/15 05:45:07;;;;;;;;;;;9.60;99.90;;;8.74;100.00;97419.78;4952505;28;1298;-69
2024/03/15 05:47:34;;;;;;;;;;;9.60;99.90;;;8.75;100.00;97426.66;4957115;28;1326;-69
2024/03/15 05:50:04;;;;;;;;;;;9.60;99.90;;;8.84;100.00;97429.78;4979946;28;1351;-69
2024/03/15 05:52:34;;;;;;;;;;;9.70;99.90;;;8.81;100.00;97425.59;4948029;28;1348;-70
2024/03/15 05:55:01;;;;;;;;;;;9.70;99.90;;;8.87;100.00;97424.50;4952259;28;1240;-69
2024/03/15 05:57:29;;;;;;;;;;;9.70;99.90;;;9.02;100.00;97428.25;4957894;28;1915;-70
2024/03/15 05:59:58;;;;;;;;;;;9.80;99.90;;;9.08;100.00;97430.63;4948649;28;1464;-70
2024/03/15 06:02:24;;;;;;;;;;;9.80;99.90;;;9.05;100.00;97433.31;4945331;28;1647;-69
2024/03/15 06:04:52;;;;;;;;;;;9.90;99.90;;;9.12;100.00;97433.03;4958322;28;1240;-70
2024/03/15 06:07:19;;;;;;;;;;;9.90;99.90;;;9.14;100.00;97430.34;4945327;28;1286;-69
2024/03/15 06:09:45;;;;;;;;;;;10.00;99.90;;;9.16;100.00;97436.31;4975089;28;1207;-70
2024/03/15 06:12:12;;;;;;;;;;;10.00;99.90;;;9.25;100.00;97433.38;4954714;28;1473;-70
2024/03/15 06:14:39;;;;;;;;;;;10.00;99.90;;;9.27;100.00;97441.91;4940477;28;1021;-70
2024/03/15 06:17:06;;;;;;;;;;;10.00;99.90;;;9.33;100.00;97436.50;4940637;28;1898;-69
2024/03/15 06:19:33;;;;;;;;;;;10.10;99.90;;;9.32;100.00;97442.56;4945902;28;942;-69
2024/03/15 06:22:00;;;;;;;;;;;10.20;99.90;;;9.41;100.00;97447.38;4942910;28;1320;-70
2024/03/15 06:24:27;;;;;;;;;;;10.20;99.90;;;9.43;100.00;97440.41;4951570;28;1121;-70
2024/03/15 06:26:54;;;;;;;;;;;10.20;99.90;;;9.55;100.00;97431.28;4947100;28;1229;-70
2024/03/15 06:29:31;;;;;;;;;;;10.30;99.90;;;9.65;100.00;97431.78;4957672;28;1058;-69
2024/03/15 06:32:00;;;;;;;;;;;10.40;99.90;;;9.62;100.00;97424.97;4957932;28;1355;-70
2024/03/15 06:34:31;;;;;;;;;;;10.40;99.90;;;9.67;100.00;97427.38;4941232;28;1438;-69
2024/03/15 06:36:59;;;;;;;;;;;10.50;99.90;;;9.80;100.00;97435.47;4945538;28;2021;-70
2024/03/15 06:42:20;;;;;;;;;;;10.40;99.90;;;9.52;100.00;97444.38;4948718;28;1349;-70
2024/03/15 06:44:50;;;;;;;;;;;10.40;99.90;;;9.42;100.00;97449.09;4949506;28;1177;-69
2024/03/15 06:47:18;;;;;;;;;;;10.30;99.90;;;9.29;100.00;97454.81;4949524;28;1127;-69
2024/03/15 06:52:35;;;;;;;;;;;10.10;99.90;;;9.09;100.00;97466.78;4971467;28;1292;-69
2024/03/15 06:55:04;;;;;;;;;;;10.00;99.90;;;9.12;100.00;97465.81;4942502;28;1320;-69
2024/03/15 06:57:32;;;;;;;;;;;10.00;99.90;;;9.09;100.00;97463.34;4945425;28;1910;-69
2024/03/15 07:00:09;;;;;;;;;;;9.90;99.90;;;9.02;100.00;97480.03;4942557;28;1370;-69
2024/03/15 07:02:41;;;;;;;;;;;;;;;8.92;100.00;97488.16;4943354;28;1383;-69
2024/03/15 07:05:10;;;;;;;;;;;9.80;99.90;;;8.88;100.00;97488.31;4945867;28;1181;-69
2024/03/15 07:07:38;;;;;;;;;;;9.80;99.90;;;8.91;100.00;97499.38;4966027;28;1066;-69
2024/03/15 07:10:06;;;;;;;;;;;9.80;99.90;;;8.92;100.00;97502.84;4941526;28;1169;-69
2024/03/15 07:12:34;;;;;;;;;;;9.80;99.90;;;8.89;100.00;97505.53;4943260;28;1388;-70
2024/03/15 07:15:04;;;;;;;;;;;9.80;99.90;;;8.91;100.00;97520.09;4945676;28;1276;-69
2024/03/15 07:17:34;;;;;;;;;;;9.80;99.90;;;8.89;100.00;97515.88;4943689;28;1950;-69
2024/03/15 07:20:01;;;;;;;;;;;9.80;99.90;;;8.91;100.00;97504.56;4953225;28;1416;-70
2024/03/15 07:22:28;;;;;;;;;;;9.80;99.90;;;8.90;100.00;97512.41;4943792;28;1352;-69
2024/03/15 07:24:59;;;;;;;;;;;9.80;99.90;;;8.93;100.00;97513.13;4950556;28;1434;-69
2024/03/15 07:27:26;;;;;;;;;;;9.80;99.90;;;8.94;100.00;97519.13;4943077;28;1220;-70
2024/03/15 07:29:53;;;;;;;;;;;9.80;99.90;;;9.00;100.00;97516.31;4952761;28;1214;-70
2024/03/15 07:32:21;;;;;;;;;;;9.80;99.90;;;9.00;100.00;97513.75;4939861;28;1332;-70
2024/03/15 07:34:48;;;;;;;;;;;9.80;99.90;;;8.99;100.00;97510.31;4956838;28;1423;-69
2024/03/15 07:37:16;;;;;;;;;;;9.80;99.90;;;8.95;100.00;97513.91;4947487;28;1993;-69
2024/03/15 07:39:44;;;;;;;;;;;9.80;99.90;;;8.92;100.00;97516.63;4947509;28;1177;-69
2024/03/15 07:42:11;;;;;;;;;;;9.70;99.90;;;8.97;100.00;97525.06;4943694;28;1451;-69
2024/03/15 07:44:38;;;;;;;;;;;9.70;99.90;;;9.07;100.00;97522.97;4957171;28;1177;-69
2024/03/15 07:47:06;;;;;;;;;;;9.80;99.90;;;8.93;100.00;97526.06;4943145;28;1305;-69
2024/03/15 07:49:33;;;;;;;;;;;9.80;99.90;;;8.94;100.00;97535.53;4948095;28;1127;-69
2024/03/15 07:52:00;;;;;;;;;;;9.70;99.90;;;8.82;100.00;97564.44;4944642;28;1293;-69
2024/03/15 07:54:27;;;;;;;;;;;9.70;99.90;;;8.87;100.00;97566.84;4941215;28;1368;-69
2024/03/15 07:56:54;;;;;;;;;;;9.70;99.90;;;8.80;100.00;97586.94;4949867;28;1982;-69
2024/03/15 07:59:21;;;;;;;;;;;9.50;99.90;;;8.73;100.00;97585.47;4927545;28;1163;-69
2024/03/15 08:01:48;;;;;;;;;;;9.50;99.90;;;8.73;100.00;97588.06;4961146;28;1292;-69
2024/03/15 08:04:15;;;;;;;;;;;9.50;99.90;;;8.77;100.00;97595.66;4944483;28;1314;-69
2024/03/15 08:06:42;;;;;;;;;;;9.50;99.90;;;8.74;100.00;97593.19;4945611;28;1113;-69
2024/03/15 08:09:11;;;;;;;;;;;9.50;99.90;;;8.82;100.00;97599.81;4947580;28;1399;-69
2024/03/15 08:11:39;;;;;;;;;;;9.50;99.90;;;8.78;100.00;97591.31;4953361;28;1446;-69
2024/03/15 08:14:06;;;;;;;;;;;9.40;99.90;;;8.85;100.00;97594.53;4947935;28;1217;-69
2024/03/15 08:16:35;;;;;;;;;;;9.50;99.90;;;8.88;100.00;97590.09;4950756;28;1273;-69
2024/03/15 08:19:04;;;;;;;;;;;9.50;99.90;;;8.93;100.00;97602.88;4940366;28;1992;-69
2024/03/15 08:21:31;;;;;;;;;;;9.50;99.90;;;8.99;100.00;97584.56;4947795;28;1304;-69
2024/03/15 08:24:04;;;;;;;;;;;9.50;99.90;;;9.00;100.00;97599.16;4963766;28;1241;-69
2024/03/15 08:26:32;;;;;;;;;;;9.50;99.90;;;9.04;100.00;97576.63;4941770;28;1186;-69
2024/03/15 08:29:02;;;;;;;;;;;9.70;99.90;;;9.14;100.00;97594.31;4945412;28;1230;-69
2024/03/15 08:31:32;;;;;;;;;;;9.60;99.90;;;9.00;100.00;97587.06;4955724;28;1299;-69
2024/03/15 08:34:02;;;;;;;;;;;9.60;99.90;;;9.02;100.00;97588.78;4953137;28;1037;-70
2024/03/15 08:36:33;;;;;;;;;;;9.60;99.90;;;9.02;100.00;97583.59;4951532;28;1201;-69
2024/03/15 08:39:01;;;;;;;;;;;9.70;99.90;;;9.07;100.00;97590.28;4942234;28;1915;-69
2024/03/15 08:41:28;;;;;;;;;;;9.70;99.90;;;9.05;100.00;97594.66;4943417;28;1390;-69
2024/03/15 08:43:56;;;;;;;;;;;9.70;99.90;;;9.07;100.00;97599.81;4945145;28;1084;-69
2024/03/15 08:46:23;;;;;;;;;;;9.80;99.90;;;9.20;100.00;97607.06;4944780;28;1153;-70
2024/03/15 08:48:51;;;;;;;;;;;9.70;99.90;;;9.22;100.00;97609.59;4944291;28;1060;-69
2024/03/15 08:51:18;;;;;;;;;;;9.70;99.90;;;9.19;100.00;97600.22;4946433;28;1240;-70
2024/03/15 08:53:46;;;;;;;;;;;9.80;99.90;;;9.30;100.00;97609.31;4942355;28;1088;-69
2024/03/15 08:56:13;;;;;;;;;;;9.80;99.90;;;9.40;100.00;97611.50;4949307;28;1091;-69
2024/03/15 08:58:40;;;;;;;;;;;9.80;99.90;;;9.40;100.00;97618.44;4947566;28;2016;-69
2024/03/15 09:01:07;;;;;;;;;;;9.90;99.90;;;9.46;100.00;97604.41;4927134;28;1237;-69
2024/03/15 09:03:34;;;;;;;;;;;10.00;99.90;;;9.39;100.00;97625.34;4944852;28;1062;-69
2024/03/15 09:06:08;;;;;;;;;;;10.00;99.90;;;9.45;100.00;97623.47;4939642;28;1311;-70
2024/03/15 09:08:36;;;;;;;;;;;10.00;99.90;;;9.52;100.00;97640.47;4958942;28;2069;-69
2024/03/15 09:11:03;;;;;;;;;;;10.10;99.90;;;9.57;100.00;97617.81;4967101;28;1328;-70
2024/03/15 09:13:30;;;;;;;;;;;10.10;99.90;;;9.56;100.00;97636.88;4953514;28;1077;-70
2024/03/15 09:16:01;;;;;;;;;;;10.20;99.90;;;9.57;100.00;97641.97;4965842;28;1085;-70
2024/03/15 09:18:29;;;;;;;;;;;10.20;99.90;;;9.69;100.00;97635.47;4948749;28;1915;-70
2024/03/15 09:20:56;;;;;;;;;;;10.20;99.90;;;9.60;100.00;97628.03;4947875;28;1368;-70
2024/03/15 09:23:24;;;;;;;;;;;10.20;99.90;;;9.74;100.00;97643.06;4946243;28;1008;-70
2024/03/15 09:25:51;;;;;;;;;;;10.20;99.90;;;9.72;100.00;97643.16;4954991;28;1100;-70
2024/03/15 09:28:18;;;;;;;;;;;10.20;99.90;;;9.75;100.00;97631.81;4956955;28;998;-68
2024/03/15 09:33:34;;;;;;;;;;;10.20;99.90;;;9.67;100.00;97613.09;4951032;28;1087;-68
2024/03/15 09:36:05;;;;;;;;;;;10.30;99.90;;;9.81;100.00;97640.19;4953648;28;1068;-68
2024/03/15 09:38:32;;;;;;;;;;;10.30;99.90;;;9.84;100.00;97645.25;4955740;28;1915;-68
2024/03/15 09:41:00;;;;;;;;;;;10.30;99.90;;;9.97;100.00;97634.44;4945466;28;1296;-68
2024/03/15 09:43:27;;;;;;;;;;;10.40;99.90;;;9.95;100.00;97613.75;4949842;28;1438;-68
2024/03/15 09:45:54;;;;;;;;;;;10.50;99.90;;;10.01;100.00;97623.00;4951754;28;1206;-68
2024/03/15 09:48:22;;;;;;;;;;;10.50;99.90;;;10.04;100.00;97626.34;4947191;28;1040;-69
2024/03/15 09:50:52;;;;;;;;;;;10.60;99.90;;;10.11;100.00;97613.13;4976263;28;1249;-69
2024/03/15 09:53:19;;;;;;;;;;;10.70;99.90;;;10.20;100.00;97631.75;4963940;28;1309;-68
2024/03/15 09:55:52;;;;;;;;;;;10.70;99.90;;;10.16;100.00;97630.19;4950743;28;1104;-69
2024/03/15 09:58:20;;;;;;;;;;;10.70;99.90;;;10.19;100.00;97649.97;4937517;28;2005;-68
2024/03/15 10:00:47;;;;;;;;;;;10.70;99.90;;;10.26;100.00;97618.53;4947020;28;1392;-69
2024/03/15 10:03:14;;;;;;;;;;;10.80;99.90;;;10.29;100.00;97614.19;4948752;28;1491;-69
2024/03/15 10:05:42;;;;;;;;;;;10.80;99.90;;;10.30;100.00;97629.66;4967876;28;1241;-69
2024/03/15 10:08:10;;;;;;;;;;;;;;;10.13;100.00;97619.94;4952224;28;1277;-69
2024/03/15 10:10:39;;;;;;;;;;;10.80;99.90;;;10.25;100.00;97639.34;4941484;28;1395;-68
2024/03/15 10:13:06;;;;;;;;;;;10.70;99.90;;;10.15;100.00;97623.31;4954712;28;1245;-69
2024/03/15 10:15:33;;;;;;;;;;;10.70;99.90;;;10.24;100.00;97627.28;4950611;28;1069;-68
2024/03/15 10:18:00;;;;;;;;;;;10.80;99.90;;;10.33;100.00;97637.34;4946864;28;1899;-69
2024/03/15 10:20:28;;;;;;;;;;;;;;;10.24;100.00;97638.50;4952403;28;1269;-68
2024/03/15 10:22:56;;;;;;;;;;;10.80;99.90;;;10.29;100.00;97621.97;4945448;28;1115;-68
2024/03/15 10:25:24;;;;;;;;;;;10.80;99.90;;;10.33;100.00;97629.56;4944214;28;1435;-68
2024/03/15 10:27:55;;;;;;;;;;;10.80;99.90;;;10.45;100.00;97618.66;4950539;28;1102;-69
2024/03/15 10:30:24;;;;;;;;;;;10.90;99.90;;;10.37;100.00;97631.09;4983681;28;1640;-69
2024/03/15 10:32:53;;;;;;;;;;;10.90;99.90;;;10.40;100.00;97619.75;4981458;28;1401;-68
2024/03/15 10:35:22;;;;;;;;;;;10.90;99.90;;;10.45;100.00;97639.41;4948157;28;1076;-68
2024/03/15 10:37:50;;;;;;;;;;;10.90;99.90;;;10.42;100.00;97629.19;4948169;28;1987;-68
2024/03/15 10:40:20;;;;;;;;;;;10.90;99.90;;;10.45;100.00;97643.78;4948231;28;1288;-68
2024/03/15 10:42:51;;;;;;;;;;;11.00;99.90;;;10.56;100.00;97643.31;4944829;28;1903;-68
2024/03/15 10:45:19;;;;;;;;;;;11.00;99.90;;;10.59;100.00;97640.59;4949316;28;1199;-69
2024/03/15 10:47:47;;;;;;;;;;;11.00;99.90;;;10.66;100.00;97636.84;4976441;28;1458;-68
2024/03/15 10:50:16;;;;;;;;;;;11.10;99.90;;;10.56;100.00;97631.19;4956928;28;1502;-68
2024/03/15 10:52:48;;;;;;;;;;;11.10;99.90;;;10.60;100.00;97650.91;4948672;28;1334;-68
2024/03/15 10:55:17;;;;;;;;;;;10.90;99.90;;;10.48;100.00;97651.41;4943445;28;1169;-68
2024/03/15 10:57:45;;;;;;;;;;;10.90;99.90;;;10.44;100.00;97639.47;4946185;28;1895;-69
2024/03/15 11:00:17;;;;;;;;;;;10.90;99.90;;;10.42;100.00;97633.50;4929870;28;1385;-69
2024/03/15 11:02:45;;;;;;;;;;;10.90;99.90;;;10.48;100.00;97642.81;4958833;28;1458;-68
2024/03/15 11:05:38;;;;;;;;;;;10.90;99.90;;;10.62;100.00;97648.25;4948788;28;1163;-68
2024/03/15 11:08:16;;;;;;;;;;;10.90;99.90;;;10.56;100.00;97635.53;4947853;28;1118;-68
2024/03/15 11:10:59;;;;;;;;;;;10.90;99.90;;;10.46;100.00;97635.06;4953136;28;1471;-68
2024/03/15 11:13:26;;;;;;;;;;;10.90;99.90;;;10.48;100.00;97643.63;4941795;28;1246;-69
2024/03/15 11:15:53;;;;;;;;;;;11.00;99.90;;;10.64;100.00;97638.66;4961004;28;1083;-68
2024/03/15 11:18:21;;;;;;;;;;;10.90;99.90;;;10.48;100.00;97638.44;4946222;28;1911;-68
2024/03/15 11:20:57;;;;;;;;;;;10.90;99.90;;;10.59;100.00;97651.81;4952629;28;1581;-69
2024/03/15 11:23:25;;;;;;;;;;;10.90;99.90;;;10.52;100.00;97650.41;4958776;28;1364;-68
2024/03/15 11:25:56;;;;;;;;;;;11.00;99.90;;;10.51;100.00;97651.28;4967109;28;1387;-68
2024/03/15 11:28:33;;;;;;;;;;;10.90;99.90;;;10.51;100.00;97648.69;4941181;28;1118;-68
2024/03/15 11:31:00;;;;;;;;;;;11.00;99.90;;;10.53;100.00;97644.28;4942329;28;1386;-69
2024/03/15 11:33:28;;;;;;;;;;;11.00;99.90;;;10.61;100.00;97646.59;4947001;28;1102;-68
2024/03/15 11:35:58;;;;;;;;;;;11.10;99.90;;;10.57;100.00;97635.47;4952984;28;1123;-68
2024/03/15 11:38:26;;;;;;;;;;;11.10;99.90;;;10.54;100.00;97637.38;4951406;28;1993;-69